sensor_id;sensor_type;location;lat;lon;timestamp;P1;durP1;ratioP1;P2;durP2;ratioP2
20637;SDS011;10478;49.004;8.470;2023-06-24T00:01:19;3.50;;;2.30;;
20637;SDS011;10478;49.004;8.470;2023-06-24T00:03:44;5.88;;;3.30;;
20637;SDS011;10478;49.004;8.470;2023-06-24T00:06:12;6.32;;;2.90;;
20637;SDS011;10478;49.004;8.470;2023-06-24T00:08:43;5.85;;;2.85;;
20637;SDS011;10478;49.004;8.470;2023-06-24T00:11:10;7.25;;;3.22;;
20637;SDS011;10478;49.004;8.470;2023-06-24T00:13:35;4.97;;;2.80;;
20637;SDS011;10478;49.004;8.470;2023-06-24T00:16:01;7.18;;;3.15;;
20637;SDS011;10478;49.004;8.470;2023-06-24T00:18:26;6.07;;;3.47;;
20637;SDS011;10478;49.004;8.470;2023-06-24T00:20:54;5.28;;;3.10;;
20637;SDS011;10478;49.004;8.470;2023-06-24T00:23:22;5.40;;;3.47;;
20637;SDS011;10478;49.004;8.470;2023-06-24T00:25:54;5.88;;;3.33;;
20637;SDS011;10478;49.004;8.470;2023-06-24T00:28:20;5.55;;;3.13;;
20637;SDS011;10478;49.004;8.470;2023-06-24T00:30:46;8.25;;;2.97;;
20637;SDS011;10478;49.004;8.470;2023-06-24T00:33:12;5.20;;;3.17;;
20637;SDS011;10478;49.004;8.470;2023-06-24T00:35:38;4.32;;;2.67;;
20637;SDS011;10478;49.004;8.470;2023-06-24T00:38:04;5.03;;;3.08;;
20637;SDS011;10478;49.004;8.470;2023-06-24T00:40:29;5.72;;;2.85;;
20637;SDS011;10478;49.004;8.470;2023-06-24T00:42:54;5.15;;;2.95;;
20637;SDS011;10478;49.004;8.470;2023-06-24T00:45:20;3.60;;;2.50;;
20637;SDS011;10478;49.004;8.470;2023-06-24T00:47:46;6.65;;;2.75;;
20637;SDS011;10478;49.004;8.470;2023-06-24T00:50:12;4.40;;;3.08;;
20637;SDS011;10478;49.004;8.470;2023-06-24T00:52:37;4.95;;;2.80;;
20637;SDS011;10478;49.004;8.470;2023-06-24T00:55:07;5.07;;;2.95;;
20637;SDS011;10478;49.004;8.470;2023-06-24T00:57:33;6.63;;;2.92;;
20637;SDS011;10478;49.004;8.470;2023-06-24T00:59:58;4.32;;;2.63;;
20637;SDS011;10478;49.004;8.470;2023-06-24T01:02:24;3.70;;;2.83;;
20637;SDS011;10478;49.004;8.470;2023-06-24T01:04:53;5.68;;;3.15;;
20637;SDS011;10478;49.004;8.470;2023-06-24T01:07:19;3.67;;;2.72;;
20637;SDS011;10478;49.004;8.470;2023-06-24T01:09:45;3.05;;;2.72;;
20637;SDS011;10478;49.004;8.470;2023-06-24T01:12:10;4.50;;;2.97;;
20637;SDS011;10478;49.004;8.470;2023-06-24T01:14:35;4.53;;;3.13;;
20637;SDS011;10478;49.004;8.470;2023-06-24T01:17:05;4.97;;;2.63;;
20637;SDS011;10478;49.004;8.470;2023-06-24T01:22:37;3.90;;;2.58;;
20637;SDS011;10478;49.004;8.470;2023-06-24T01:30:54;5.18;;;2.75;;
20637;SDS011;10478;49.004;8.470;2023-06-24T01:38:58;4.43;;;2.53;;
20637;SDS011;10478;49.004;8.470;2023-06-24T01:41:36;5.22;;;3.17;;
20637;SDS011;10478;49.004;8.470;2023-06-24T01:44:05;6.65;;;3.83;;
20637;SDS011;10478;49.004;8.470;2023-06-24T01:46:35;5.88;;;2.67;;
20637;SDS011;10478;49.004;8.470;2023-06-24T01:49:01;3.35;;;2.42;;
20637;SDS011;10478;49.004;8.470;2023-06-24T01:51:28;4.43;;;2.70;;
20637;SDS011;10478;49.004;8.470;2023-06-24T01:53:57;4.80;;;2.95;;
20637;SDS011;10478;49.004;8.470;2023-06-24T01:56:25;5.97;;;3.33;;
20637;SDS011;10478;49.004;8.470;2023-06-24T01:58:52;4.68;;;2.80;;
20637;SDS011;10478;49.004;8.470;2023-06-24T02:01:18;5.28;;;3.08;;
20637;SDS011;10478;49.004;8.470;2023-06-24T02:03:44;4.32;;;2.80;;
20637;SDS011;10478;49.004;8.470;2023-06-24T02:06:10;5.43;;;3.05;;
20637;SDS011;10478;49.004;8.470;2023-06-24T02:08:37;4.10;;;3.45;;
20637;SDS011;10478;49.004;8.470;2023-06-24T02:11:04;4.55;;;2.83;;
20637;SDS011;10478;49.004;8.470;2023-06-24T02:13:30;5.65;;;3.17;;
20637;SDS011;10478;49.004;8.470;2023-06-24T02:15:57;3.63;;;3.08;;
20637;SDS011;10478;49.004;8.470;2023-06-24T02:18:24;3.03;;;2.42;;
20637;SDS011;10478;49.004;8.470;2023-06-24T02:20:51;5.43;;;3.60;;
20637;SDS011;10478;49.004;8.470;2023-06-24T02:23:17;4.45;;;2.47;;
20637;SDS011;10478;49.004;8.470;2023-06-24T02:25:42;4.85;;;3.55;;
20637;SDS011;10478;49.004;8.470;2023-06-24T02:28:08;5.18;;;3.08;;
20637;SDS011;10478;49.004;8.470;2023-06-24T02:30:34;5.15;;;2.80;;
20637;SDS011;10478;49.004;8.470;2023-06-24T02:33:01;6.75;;;3.05;;
20637;SDS011;10478;49.004;8.470;2023-06-24T02:35:26;5.93;;;3.13;;
20637;SDS011;10478;49.004;8.470;2023-06-24T02:37:52;4.30;;;3.25;;
20637;SDS011;10478;49.004;8.470;2023-06-24T02:40:17;5.13;;;3.28;;
20637;SDS011;10478;49.004;8.470;2023-06-24T02:42:43;4.20;;;2.80;;
20637;SDS011;10478;49.004;8.470;2023-06-24T02:45:09;6.63;;;3.05;;
20637;SDS011;10478;49.004;8.470;2023-06-24T02:47:34;4.78;;;2.85;;
20637;SDS011;10478;49.004;8.470;2023-06-24T02:50:00;4.53;;;2.40;;
20637;SDS011;10478;49.004;8.470;2023-06-24T02:52:30;3.88;;;2.75;;
20637;SDS011;10478;49.004;8.470;2023-06-24T02:54:56;5.68;;;2.97;;
20637;SDS011;10478;49.004;8.470;2023-06-24T02:57:22;3.95;;;2.78;;
20637;SDS011;10478;49.004;8.470;2023-06-24T02:59:48;7.03;;;3.55;;
20637;SDS011;10478;49.004;8.470;2023-06-24T03:02:14;5.03;;;2.78;;
20637;SDS011;10478;49.004;8.470;2023-06-24T03:04:42;5.35;;;3.15;;
20637;SDS011;10478;49.004;8.470;2023-06-24T03:07:07;5.57;;;3.47;;
20637;SDS011;10478;49.004;8.470;2023-06-24T03:09:35;6.97;;;3.65;;
20637;SDS011;10478;49.004;8.470;2023-06-24T03:12:00;6.20;;;2.75;;
20637;SDS011;10478;49.004;8.470;2023-06-24T03:14:25;4.70;;;3.10;;
20637;SDS011;10478;49.004;8.470;2023-06-24T03:16:51;4.55;;;2.85;;
20637;SDS011;10478;49.004;8.470;2023-06-24T03:19:16;4.13;;;3.13;;
20637;SDS011;10478;49.004;8.470;2023-06-24T03:21:41;4.55;;;2.78;;
20637;SDS011;10478;49.004;8.470;2023-06-24T03:24:07;4.45;;;3.03;;
20637;SDS011;10478;49.004;8.470;2023-06-24T03:26:33;5.43;;;3.40;;
20637;SDS011;10478;49.004;8.470;2023-06-24T03:28:59;5.45;;;3.38;;
20637;SDS011;10478;49.004;8.470;2023-06-24T03:31:25;3.63;;;2.42;;
20637;SDS011;10478;49.004;8.470;2023-06-24T03:33:50;5.63;;;2.70;;
20637;SDS011;10478;49.004;8.470;2023-06-24T03:36:15;3.60;;;3.00;;
20637;SDS011;10478;49.004;8.470;2023-06-24T03:38:40;6.68;;;3.42;;
20637;SDS011;10478;49.004;8.470;2023-06-24T03:41:06;6.97;;;3.30;;
20637;SDS011;10478;49.004;8.470;2023-06-24T03:43:31;4.43;;;2.95;;
20637;SDS011;10478;49.004;8.470;2023-06-24T03:45:56;4.18;;;3.10;;
20637;SDS011;10478;49.004;8.470;2023-06-24T03:48:22;5.00;;;3.40;;
20637;SDS011;10478;49.004;8.470;2023-06-24T03:50:47;5.45;;;3.22;;
20637;SDS011;10478;49.004;8.470;2023-06-24T03:53:12;5.85;;;3.92;;
20637;SDS011;10478;49.004;8.470;2023-06-24T03:55:38;4.90;;;3.10;;
20637;SDS011;10478;49.004;8.470;2023-06-24T03:58:03;6.72;;;4.25;;
20637;SDS011;10478;49.004;8.470;2023-06-24T04:00:28;4.03;;;2.88;;
20637;SDS011;10478;49.004;8.470;2023-06-24T04:02:54;4.47;;;3.03;;
20637;SDS011;10478;49.004;8.470;2023-06-24T04:05:20;4.82;;;3.20;;
20637;SDS011;10478;49.004;8.470;2023-06-24T04:07:45;4.25;;;3.17;;
20637;SDS011;10478;49.004;8.470;2023-06-24T04:10:11;4.70;;;2.85;;
20637;SDS011;10478;49.004;8.470;2023-06-24T04:12:37;5.38;;;3.47;;
20637;SDS011;10478;49.004;8.470;2023-06-24T04:15:03;4.57;;;3.03;;
20637;SDS011;10478;49.004;8.470;2023-06-24T04:17:29;5.07;;;3.10;;
20637;SDS011;10478;49.004;8.470;2023-06-24T04:19:55;4.70;;;2.75;;
20637;SDS011;10478;49.004;8.470;2023-06-24T04:22:20;4.88;;;3.42;;
20637;SDS011;10478;49.004;8.470;2023-06-24T04:24:46;5.13;;;3.80;;
20637;SDS011;10478;49.004;8.470;2023-06-24T04:27:11;7.22;;;4.55;;
20637;SDS011;10478;49.004;8.470;2023-06-24T04:29:36;9.48;;;5.50;;
20637;SDS011;10478;49.004;8.470;2023-06-24T04:32:02;5.97;;;4.45;;
20637;SDS011;10478;49.004;8.470;2023-06-24T04:34:27;9.65;;;6.60;;
20637;SDS011;10478;49.004;8.470;2023-06-24T04:36:53;11.27;;;6.32;;
20637;SDS011;10478;49.004;8.470;2023-06-24T04:39:18;6.25;;;4.03;;
20637;SDS011;10478;49.004;8.470;2023-06-24T04:41:43;7.93;;;4.45;;
20637;SDS011;10478;49.004;8.470;2023-06-24T04:44:09;10.68;;;7.10;;
20637;SDS011;10478;49.004;8.470;2023-06-24T04:46:34;8.95;;;5.32;;
20637;SDS011;10478;49.004;8.470;2023-06-24T04:48:59;10.43;;;5.75;;
20637;SDS011;10478;49.004;8.470;2023-06-24T04:51:25;13.52;;;6.05;;
20637;SDS011;10478;49.004;8.470;2023-06-24T04:53:50;7.00;;;4.85;;
20637;SDS011;10478;49.004;8.470;2023-06-24T04:56:15;7.53;;;4.13;;
20637;SDS011;10478;49.004;8.470;2023-06-24T04:58:41;8.30;;;5.80;;
20637;SDS011;10478;49.004;8.470;2023-06-24T05:01:06;6.22;;;3.90;;
20637;SDS011;10478;49.004;8.470;2023-06-24T05:03:31;7.25;;;3.20;;
20637;SDS011;10478;49.004;8.470;2023-06-24T05:05:57;7.32;;;3.70;;
20637;SDS011;10478;49.004;8.470;2023-06-24T05:08:22;5.80;;;3.90;;
20637;SDS011;10478;49.004;8.470;2023-06-24T05:10:47;4.50;;;3.10;;
20637;SDS011;10478;49.004;8.470;2023-06-24T05:13:13;6.47;;;3.80;;
20637;SDS011;10478;49.004;8.470;2023-06-24T05:15:38;4.70;;;3.05;;
20637;SDS011;10478;49.004;8.470;2023-06-24T05:18:03;4.70;;;3.35;;
20637;SDS011;10478;49.004;8.470;2023-06-24T05:20:29;6.22;;;3.17;;
20637;SDS011;10478;49.004;8.470;2023-06-24T05:22:54;5.85;;;3.53;;
20637;SDS011;10478;49.004;8.470;2023-06-24T05:25:19;4.80;;;3.25;;
20637;SDS011;10478;49.004;8.470;2023-06-24T05:27:45;4.57;;;3.22;;
20637;SDS011;10478;49.004;8.470;2023-06-24T05:30:10;7.88;;;3.53;;
20637;SDS011;10478;49.004;8.470;2023-06-24T05:32:36;6.90;;;3.80;;
20637;SDS011;10478;49.004;8.470;2023-06-24T05:35:01;5.72;;;3.85;;
20637;SDS011;10478;49.004;8.470;2023-06-24T05:37:26;4.70;;;3.42;;
20637;SDS011;10478;49.004;8.470;2023-06-24T05:39:52;8.48;;;4.80;;
20637;SDS011;10478;49.004;8.470;2023-06-24T05:42:17;5.32;;;3.75;;
20637;SDS011;10478;49.004;8.470;2023-06-24T05:44:43;5.95;;;4.15;;
20637;SDS011;10478;49.004;8.470;2023-06-24T05:47:08;6.68;;;3.70;;
20637;SDS011;10478;49.004;8.470;2023-06-24T05:49:33;5.65;;;3.33;;
20637;SDS011;10478;49.004;8.470;2023-06-24T05:51:59;6.05;;;3.65;;
20637;SDS011;10478;49.004;8.470;2023-06-24T05:54:24;3.95;;;2.95;;
20637;SDS011;10478;49.004;8.470;2023-06-24T05:56:49;5.72;;;3.78;;
20637;SDS011;10478;49.004;8.470;2023-06-24T05:59:15;4.32;;;2.95;;
20637;SDS011;10478;49.004;8.470;2023-06-24T06:01:40;5.70;;;3.55;;
20637;SDS011;10478;49.004;8.470;2023-06-24T06:04:05;4.53;;;3.28;;
20637;SDS011;10478;49.004;8.470;2023-06-24T06:06:31;4.97;;;3.55;;
20637;SDS011;10478;49.004;8.470;2023-06-24T06:08:56;5.28;;;3.10;;
20637;SDS011;10478;49.004;8.470;2023-06-24T06:11:22;9.95;;;3.80;;
20637;SDS011;10478;49.004;8.470;2023-06-24T06:13:47;5.25;;;3.15;;
20637;SDS011;10478;49.004;8.470;2023-06-24T06:16:13;7.32;;;3.33;;
20637;SDS011;10478;49.004;8.470;2023-06-24T06:18:38;6.30;;;3.30;;
20637;SDS011;10478;49.004;8.470;2023-06-24T06:21:04;5.85;;;3.78;;
20637;SDS011;10478;49.004;8.470;2023-06-24T06:23:29;6.28;;;2.92;;
20637;SDS011;10478;49.004;8.470;2023-06-24T06:25:55;5.15;;;3.08;;
20637;SDS011;10478;49.004;8.470;2023-06-24T06:28:20;3.22;;;2.72;;
20637;SDS011;10478;49.004;8.470;2023-06-24T06:30:45;5.03;;;2.83;;
20637;SDS011;10478;49.004;8.470;2023-06-24T06:33:11;4.80;;;3.13;;
20637;SDS011;10478;49.004;8.470;2023-06-24T06:35:36;5.93;;;2.92;;
20637;SDS011;10478;49.004;8.470;2023-06-24T06:38:01;6.57;;;2.90;;
20637;SDS011;10478;49.004;8.470;2023-06-24T06:40:27;6.00;;;3.25;;
20637;SDS011;10478;49.004;8.470;2023-06-24T06:42:53;3.63;;;2.83;;
20637;SDS011;10478;49.004;8.470;2023-06-24T06:45:18;5.20;;;3.30;;
20637;SDS011;10478;49.004;8.470;2023-06-24T06:47:44;4.63;;;2.90;;
20637;SDS011;10478;49.004;8.470;2023-06-24T06:50:09;3.88;;;3.13;;
20637;SDS011;10478;49.004;8.470;2023-06-24T06:52:35;4.82;;;2.88;;
20637;SDS011;10478;49.004;8.470;2023-06-24T06:55:00;5.35;;;3.08;;
20637;SDS011;10478;49.004;8.470;2023-06-24T06:57:25;6.93;;;3.40;;
20637;SDS011;10478;49.004;8.470;2023-06-24T06:59:51;4.10;;;2.80;;
20637;SDS011;10478;49.004;8.470;2023-06-24T07:02:17;7.25;;;3.58;;
20637;SDS011;10478;49.004;8.470;2023-06-24T07:04:43;9.10;;;4.05;;
20637;SDS011;10478;49.004;8.470;2023-06-24T07:07:08;7.60;;;3.85;;
20637;SDS011;10478;49.004;8.470;2023-06-24T07:09:33;4.05;;;3.47;;
20637;SDS011;10478;49.004;8.470;2023-06-24T07:11:59;14.73;;;8.75;;
20637;SDS011;10478;49.004;8.470;2023-06-24T07:14:24;10.73;;;6.10;;
20637;SDS011;10478;49.004;8.470;2023-06-24T07:16:49;8.93;;;5.65;;
20637;SDS011;10478;49.004;8.470;2023-06-24T07:19:15;4.72;;;3.25;;
20637;SDS011;10478;49.004;8.470;2023-06-24T07:21:40;4.45;;;2.70;;
20637;SDS011;10478;49.004;8.470;2023-06-24T07:24:05;6.93;;;3.83;;
20637;SDS011;10478;49.004;8.470;2023-06-24T07:26:31;5.90;;;3.42;;
20637;SDS011;10478;49.004;8.470;2023-06-24T07:28:56;5.15;;;3.72;;
20637;SDS011;10478;49.004;8.470;2023-06-24T07:31:23;4.97;;;3.35;;
20637;SDS011;10478;49.004;8.470;2023-06-24T07:33:48;4.88;;;3.20;;
20637;SDS011;10478;49.004;8.470;2023-06-24T07:36:13;3.70;;;2.63;;
20637;SDS011;10478;49.004;8.470;2023-06-24T07:38:39;5.78;;;3.05;;
20637;SDS011;10478;49.004;8.470;2023-06-24T07:41:04;7.55;;;3.38;;
20637;SDS011;10478;49.004;8.470;2023-06-24T07:43:29;5.68;;;3.90;;
20637;SDS011;10478;49.004;8.470;2023-06-24T07:45:55;4.65;;;3.03;;
20637;SDS011;10478;49.004;8.470;2023-06-24T07:48:20;4.25;;;3.00;;
20637;SDS011;10478;49.004;8.470;2023-06-24T07:50:46;5.45;;;3.60;;
20637;SDS011;10478;49.004;8.470;2023-06-24T07:53:11;5.78;;;4.05;;
20637;SDS011;10478;49.004;8.470;2023-06-24T07:55:36;4.53;;;2.78;;
20637;SDS011;10478;49.004;8.470;2023-06-24T07:58:02;5.50;;;4.03;;
20637;SDS011;10478;49.004;8.470;2023-06-24T08:00:28;4.72;;;3.60;;
20637;SDS011;10478;49.004;8.470;2023-06-24T08:02:53;7.30;;;3.40;;
20637;SDS011;10478;49.004;8.470;2023-06-24T08:05:20;5.50;;;3.00;;
20637;SDS011;10478;49.004;8.470;2023-06-24T08:07:45;6.65;;;3.65;;
20637;SDS011;10478;49.004;8.470;2023-06-24T08:10:11;4.22;;;3.35;;
20637;SDS011;10478;49.004;8.470;2023-06-24T08:12:36;5.25;;;3.45;;
20637;SDS011;10478;49.004;8.470;2023-06-24T08:15:02;5.43;;;3.03;;
20637;SDS011;10478;49.004;8.470;2023-06-24T08:17:27;6.45;;;3.40;;
20637;SDS011;10478;49.004;8.470;2023-06-24T08:19:53;3.92;;;2.85;;
20637;SDS011;10478;49.004;8.470;2023-06-24T08:22:18;7.28;;;2.85;;
20637;SDS011;10478;49.004;8.470;2023-06-24T08:24:43;4.90;;;3.00;;
20637;SDS011;10478;49.004;8.470;2023-06-24T08:27:09;4.65;;;2.90;;
20637;SDS011;10478;49.004;8.470;2023-06-24T08:29:34;3.92;;;2.80;;
20637;SDS011;10478;49.004;8.470;2023-06-24T08:31:59;3.72;;;2.63;;
20637;SDS011;10478;49.004;8.470;2023-06-24T08:34:25;3.85;;;3.17;;
20637;SDS011;10478;49.004;8.470;2023-06-24T08:36:50;5.28;;;3.58;;
20637;SDS011;10478;49.004;8.470;2023-06-24T08:39:15;5.05;;;3.55;;
20637;SDS011;10478;49.004;8.470;2023-06-24T08:41:41;4.18;;;3.00;;
20637;SDS011;10478;49.004;8.470;2023-06-24T08:44:06;4.80;;;2.70;;
20637;SDS011;10478;49.004;8.470;2023-06-24T08:46:31;4.68;;;3.47;;
20637;SDS011;10478;49.004;8.470;2023-06-24T08:49:12;3.65;;;2.70;;
20637;SDS011;10478;49.004;8.470;2023-06-24T08:51:46;5.20;;;3.13;;
20637;SDS011;10478;49.004;8.470;2023-06-24T08:54:17;4.05;;;2.55;;
20637;SDS011;10478;49.004;8.470;2023-06-24T08:56:44;4.32;;;2.92;;
20637;SDS011;10478;49.004;8.470;2023-06-24T08:59:09;5.00;;;2.90;;
20637;SDS011;10478;49.004;8.470;2023-06-24T09:01:34;4.40;;;2.70;;
20637;SDS011;10478;49.004;8.470;2023-06-24T09:04:00;3.55;;;2.70;;
20637;SDS011;10478;49.004;8.470;2023-06-24T09:06:25;4.30;;;2.60;;
20637;SDS011;10478;49.004;8.470;2023-06-24T09:08:54;6.00;;;3.05;;
20637;SDS011;10478;49.004;8.470;2023-06-24T09:11:23;4.45;;;2.95;;
20637;SDS011;10478;49.004;8.470;2023-06-24T09:13:58;4.65;;;2.60;;
20637;SDS011;10478;49.004;8.470;2023-06-24T09:16:24;5.75;;;3.03;;
20637;SDS011;10478;49.004;8.470;2023-06-24T09:18:51;5.10;;;2.85;;
20637;SDS011;10478;49.004;8.470;2023-06-24T09:21:24;4.95;;;3.05;;
20637;SDS011;10478;49.004;8.470;2023-06-24T09:23:53;3.72;;;3.00;;
20637;SDS011;10478;49.004;8.470;2023-06-24T09:26:22;3.85;;;2.72;;
20637;SDS011;10478;49.004;8.470;2023-06-24T09:28:48;5.95;;;3.05;;
20637;SDS011;10478;49.004;8.470;2023-06-24T09:31:14;3.97;;;2.60;;
20637;SDS011;10478;49.004;8.470;2023-06-24T09:33:40;4.05;;;2.67;;
20637;SDS011;10478;49.004;8.470;2023-06-24T09:36:05;4.10;;;3.03;;
20637;SDS011;10478;49.004;8.470;2023-06-24T09:38:34;4.63;;;2.60;;
20637;SDS011;10478;49.004;8.470;2023-06-24T09:41:04;4.93;;;2.75;;
20637;SDS011;10478;49.004;8.470;2023-06-24T09:43:30;5.32;;;2.65;;
20637;SDS011;10478;49.004;8.470;2023-06-24T09:46:00;4.10;;;2.45;;
20637;SDS011;10478;49.004;8.470;2023-06-24T09:48:26;3.25;;;2.50;;
20637;SDS011;10478;49.004;8.470;2023-06-24T09:50:51;4.35;;;2.83;;
20637;SDS011;10478;49.004;8.470;2023-06-24T09:53:17;4.07;;;2.92;;
20637;SDS011;10478;49.004;8.470;2023-06-24T09:55:43;5.38;;;3.80;;
20637;SDS011;10478;49.004;8.470;2023-06-24T09:58:11;4.82;;;2.53;;
20637;SDS011;10478;49.004;8.470;2023-06-24T10:00:36;3.08;;;2.13;;
20637;SDS011;10478;49.004;8.470;2023-06-24T10:03:02;3.35;;;1.90;;
20637;SDS011;10478;49.004;8.470;2023-06-24T10:05:27;3.55;;;2.63;;
20637;SDS011;10478;49.004;8.470;2023-06-24T10:07:53;4.05;;;2.22;;
20637;SDS011;10478;49.004;8.470;2023-06-24T10:10:18;4.10;;;2.05;;
20637;SDS011;10478;49.004;8.470;2023-06-24T10:12:43;4.05;;;2.20;;
20637;SDS011;10478;49.004;8.470;2023-06-24T10:15:09;4.03;;;2.65;;
20637;SDS011;10478;49.004;8.470;2023-06-24T10:17:34;5.13;;;3.42;;
20637;SDS011;10478;49.004;8.470;2023-06-24T10:20:03;3.53;;;2.42;;
20637;SDS011;10478;49.004;8.470;2023-06-24T10:22:31;3.92;;;2.75;;
20637;SDS011;10478;49.004;8.470;2023-06-24T10:24:59;2.65;;;2.28;;
20637;SDS011;10478;49.004;8.470;2023-06-24T10:27:25;4.45;;;2.42;;
20637;SDS011;10478;49.004;8.470;2023-06-24T10:29:53;4.40;;;2.63;;
20637;SDS011;10478;49.004;8.470;2023-06-24T10:32:19;2.97;;;2.28;;
20637;SDS011;10478;49.004;8.470;2023-06-24T10:34:47;3.05;;;2.13;;
20637;SDS011;10478;49.004;8.470;2023-06-24T10:37:14;3.42;;;2.63;;
20637;SDS011;10478;49.004;8.470;2023-06-24T10:39:50;3.55;;;2.35;;
20637;SDS011;10478;49.004;8.470;2023-06-24T10:47:42;6.32;;;2.40;;
20637;SDS011;10478;49.004;8.470;2023-06-24T10:50:09;2.38;;;1.85;;
20637;SDS011;10478;49.004;8.470;2023-06-24T10:52:40;4.95;;;2.65;;
20637;SDS011;10478;49.004;8.470;2023-06-24T10:55:20;3.75;;;2.40;;
20637;SDS011;10478;49.004;8.470;2023-06-24T10:57:45;2.70;;;2.03;;
20637;SDS011;10478;49.004;8.470;2023-06-24T11:00:11;4.18;;;2.53;;
20637;SDS011;10478;49.004;8.470;2023-06-24T11:02:37;2.97;;;2.22;;
20637;SDS011;10478;49.004;8.470;2023-06-24T11:05:03;3.13;;;2.30;;
20637;SDS011;10478;49.004;8.470;2023-06-24T11:07:29;4.40;;;2.20;;
20637;SDS011;10478;49.004;8.470;2023-06-24T11:09:58;3.67;;;2.08;;
20637;SDS011;10478;49.004;8.470;2023-06-24T11:12:26;4.18;;;2.33;;
20637;SDS011;10478;49.004;8.470;2023-06-24T11:14:59;3.67;;;2.00;;
20637;SDS011;10478;49.004;8.470;2023-06-24T11:17:25;7.43;;;2.72;;
20637;SDS011;10478;49.004;8.470;2023-06-24T11:19:54;5.30;;;2.38;;
20637;SDS011;10478;49.004;8.470;2023-06-24T11:22:21;3.65;;;2.40;;
20637;SDS011;10478;49.004;8.470;2023-06-24T11:24:47;3.08;;;2.22;;
20637;SDS011;10478;49.004;8.470;2023-06-24T11:27:12;3.00;;;2.00;;
20637;SDS011;10478;49.004;8.470;2023-06-24T11:29:38;4.65;;;2.53;;
20637;SDS011;10478;49.004;8.470;2023-06-24T11:32:06;3.70;;;2.25;;
20637;SDS011;10478;49.004;8.470;2023-06-24T11:34:32;4.35;;;2.10;;
20637;SDS011;10478;49.004;8.470;2023-06-24T11:36:57;3.05;;;2.00;;
20637;SDS011;10478;49.004;8.470;2023-06-24T11:39:27;3.22;;;1.90;;
20637;SDS011;10478;49.004;8.470;2023-06-24T11:41:53;6.45;;;3.53;;
20637;SDS011;10478;49.004;8.470;2023-06-24T11:44:23;4.10;;;2.45;;
20637;SDS011;10478;49.004;8.470;2023-06-24T11:46:49;3.38;;;2.47;;
20637;SDS011;10478;49.004;8.470;2023-06-24T11:49:14;3.33;;;1.80;;
20637;SDS011;10478;49.004;8.470;2023-06-24T11:51:47;3.53;;;2.30;;
20637;SDS011;10478;49.004;8.470;2023-06-24T11:54:13;3.65;;;2.33;;
20637;SDS011;10478;49.004;8.470;2023-06-24T11:56:39;3.58;;;2.13;;
20637;SDS011;10478;49.004;8.470;2023-06-24T11:59:06;2.88;;;2.00;;
20637;SDS011;10478;49.004;8.470;2023-06-24T12:01:42;4.63;;;2.40;;
20637;SDS011;10478;49.004;8.470;2023-06-24T12:04:11;3.10;;;2.03;;
20637;SDS011;10478;49.004;8.470;2023-06-24T12:06:38;2.47;;;2.08;;
20637;SDS011;10478;49.004;8.470;2023-06-24T12:09:05;3.47;;;2.15;;
20637;SDS011;10478;49.004;8.470;2023-06-24T12:11:30;2.83;;;1.95;;
20637;SDS011;10478;49.004;8.470;2023-06-24T12:13:55;3.30;;;2.10;;
20637;SDS011;10478;49.004;8.470;2023-06-24T12:16:21;2.47;;;1.80;;
20637;SDS011;10478;49.004;8.470;2023-06-24T12:18:48;3.08;;;2.03;;
20637;SDS011;10478;49.004;8.470;2023-06-24T12:21:13;2.58;;;1.85;;
20637;SDS011;10478;49.004;8.470;2023-06-24T12:23:38;4.53;;;2.83;;
20637;SDS011;10478;49.004;8.470;2023-06-24T12:26:04;4.15;;;2.35;;
20637;SDS011;10478;49.004;8.470;2023-06-24T12:28:29;3.75;;;2.20;;
20637;SDS011;10478;49.004;8.470;2023-06-24T12:30:54;3.50;;;1.85;;
20637;SDS011;10478;49.004;8.470;2023-06-24T12:33:20;2.83;;;2.50;;
20637;SDS011;10478;49.004;8.470;2023-06-24T12:35:47;2.70;;;2.00;;
20637;SDS011;10478;49.004;8.470;2023-06-24T12:38:13;3.63;;;2.22;;
20637;SDS011;10478;49.004;8.470;2023-06-24T12:40:38;3.47;;;2.55;;
20637;SDS011;10478;49.004;8.470;2023-06-24T12:43:04;2.47;;;1.85;;
20637;SDS011;10478;49.004;8.470;2023-06-24T12:45:29;3.38;;;2.22;;
20637;SDS011;10478;49.004;8.470;2023-06-24T12:47:55;6.97;;;2.53;;
20637;SDS011;10478;49.004;8.470;2023-06-24T12:50:20;5.53;;;2.50;;
20637;SDS011;10478;49.004;8.470;2023-06-24T12:52:45;3.30;;;2.15;;
20637;SDS011;10478;49.004;8.470;2023-06-24T12:55:11;2.65;;;2.00;;
20637;SDS011;10478;49.004;8.470;2023-06-24T12:57:37;3.22;;;1.92;;
20637;SDS011;10478;49.004;8.470;2023-06-24T13:00:02;3.58;;;2.10;;
20637;SDS011;10478;49.004;8.470;2023-06-24T13:02:30;3.90;;;2.53;;
20637;SDS011;10478;49.004;8.470;2023-06-24T13:04:55;2.90;;;2.20;;
20637;SDS011;10478;49.004;8.470;2023-06-24T13:07:20;3.95;;;2.10;;
20637;SDS011;10478;49.004;8.470;2023-06-24T13:09:46;4.47;;;2.30;;
20637;SDS011;10478;49.004;8.470;2023-06-24T13:12:11;2.88;;;2.22;;
20637;SDS011;10478;49.004;8.470;2023-06-24T13:14:36;3.92;;;2.92;;
20637;SDS011;10478;49.004;8.470;2023-06-24T13:17:02;4.13;;;2.08;;
20637;SDS011;10478;49.004;8.470;2023-06-24T13:19:27;3.03;;;2.25;;
20637;SDS011;10478;49.004;8.470;2023-06-24T13:21:52;4.97;;;2.20;;
20637;SDS011;10478;49.004;8.470;2023-06-24T13:24:18;2.80;;;1.95;;
20637;SDS011;10478;49.004;8.470;2023-06-24T13:26:43;3.70;;;2.50;;
20637;SDS011;10478;49.004;8.470;2023-06-24T13:29:09;3.65;;;2.17;;
20637;SDS011;10478;49.004;8.470;2023-06-24T13:31:34;3.58;;;2.03;;
20637;SDS011;10478;49.004;8.470;2023-06-24T13:34:00;2.80;;;2.33;;
20637;SDS011;10478;49.004;8.470;2023-06-24T13:36:27;3.28;;;2.10;;
20637;SDS011;10478;49.004;8.470;2023-06-24T13:38:58;4.05;;;1.95;;
20637;SDS011;10478;49.004;8.470;2023-06-24T13:41:23;3.92;;;2.30;;
20637;SDS011;10478;49.004;8.470;2023-06-24T13:43:49;2.47;;;1.70;;
20637;SDS011;10478;49.004;8.470;2023-06-24T13:46:15;3.03;;;2.10;;
20637;SDS011;10478;49.004;8.470;2023-06-24T13:48:40;3.58;;;2.10;;
20637;SDS011;10478;49.004;8.470;2023-06-24T13:51:06;3.38;;;2.38;;
20637;SDS011;10478;49.004;8.470;2023-06-24T13:53:31;2.85;;;1.88;;
20637;SDS011;10478;49.004;8.470;2023-06-24T13:55:57;2.85;;;2.33;;
20637;SDS011;10478;49.004;8.470;2023-06-24T13:58:22;3.40;;;2.17;;
20637;SDS011;10478;49.004;8.470;2023-06-24T14:00:47;2.67;;;2.00;;
20637;SDS011;10478;49.004;8.470;2023-06-24T14:03:13;3.97;;;1.98;;
20637;SDS011;10478;49.004;8.470;2023-06-24T14:05:38;4.28;;;2.28;;
20637;SDS011;10478;49.004;8.470;2023-06-24T14:08:03;3.35;;;2.22;;
20637;SDS011;10478;49.004;8.470;2023-06-24T14:10:29;6.10;;;2.20;;
20637;SDS011;10478;49.004;8.470;2023-06-24T14:12:54;6.07;;;2.35;;
20637;SDS011;10478;49.004;8.470;2023-06-24T14:15:19;2.83;;;1.77;;
20637;SDS011;10478;49.004;8.470;2023-06-24T14:17:45;2.25;;;1.92;;
20637;SDS011;10478;49.004;8.470;2023-06-24T14:20:10;3.70;;;2.38;;
20637;SDS011;10478;49.004;8.470;2023-06-24T14:22:36;2.55;;;1.73;;
20637;SDS011;10478;49.004;8.470;2023-06-24T14:25:01;2.70;;;2.00;;
20637;SDS011;10478;49.004;8.470;2023-06-24T14:27:27;2.92;;;1.90;;
20637;SDS011;10478;49.004;8.470;2023-06-24T14:29:52;4.03;;;1.98;;
20637;SDS011;10478;49.004;8.470;2023-06-24T14:32:17;2.97;;;1.95;;
20637;SDS011;10478;49.004;8.470;2023-06-24T14:34:43;4.72;;;2.22;;
20637;SDS011;10478;49.004;8.470;2023-06-24T14:37:08;2.65;;;1.85;;
20637;SDS011;10478;49.004;8.470;2023-06-24T14:39:33;2.88;;;2.03;;
20637;SDS011;10478;49.004;8.470;2023-06-24T14:41:59;3.67;;;1.85;;
20637;SDS011;10478;49.004;8.470;2023-06-24T14:44:24;2.40;;;1.50;;
20637;SDS011;10478;49.004;8.470;2023-06-24T14:46:49;3.00;;;1.95;;
20637;SDS011;10478;49.004;8.470;2023-06-24T14:49:14;5.47;;;2.22;;
20637;SDS011;10478;49.004;8.470;2023-06-24T14:51:41;2.45;;;1.60;;
20637;SDS011;10478;49.004;8.470;2023-06-24T14:54:06;3.63;;;2.35;;
20637;SDS011;10478;49.004;8.470;2023-06-24T14:56:32;2.40;;;1.88;;
20637;SDS011;10478;49.004;8.470;2023-06-24T14:58:58;3.20;;;2.00;;
20637;SDS011;10478;49.004;8.470;2023-06-24T15:01:23;2.30;;;1.90;;